createdAt,value
2022-09-30T00:01:06.281Z,3.53
2022-09-30T00:03:33.098Z,4.40
2022-09-30T00:06:07.092Z,4.47
2022-09-30T00:08:35.408Z,3.53
2022-09-30T00:11:07.827Z,2.77
2022-09-30T00:13:40.149Z,5.93
2022-09-30T00:16:08.710Z,5.33
2022-09-30T00:18:36.735Z,2.60
2022-09-30T00:21:04.457Z,3.13
2022-09-30T00:23:31.456Z,2.43
2022-09-30T00:26:00.400Z,4.17
2022-09-30T00:28:27.897Z,5.20
2022-09-30T00:30:58.522Z,4.27
2022-09-30T00:33:25.261Z,2.53
2022-09-30T00:35:51.972Z,4.20
2022-09-30T00:38:18.708Z,5.00
2022-09-30T00:40:45.981Z,3.27
2022-09-30T00:43:15.247Z,4.60
2022-09-30T00:45:50.973Z,3.53
2022-09-30T00:48:28.523Z,2.70
2022-09-30T00:50:55.669Z,3.60
2022-09-30T00:53:27.813Z,3.40
2022-09-30T00:56:06.635Z,2.90
2022-09-30T00:58:33.329Z,7.47
2022-09-30T01:01:01.866Z,3.87
2022-09-30T01:03:33.828Z,3.40
2022-09-30T01:06:00.609Z,3.10
2022-09-30T01:08:28.257Z,8.57
2022-09-30T01:10:54.991Z,3.93
2022-09-30T01:13:24.659Z,4.13
2022-09-30T01:16:22.326Z,5.03
2022-09-30T01:19:03.125Z,3.00
2022-09-30T01:21:52.032Z,3.17
2022-09-30T01:24:51.066Z,3.63
2022-09-30T01:27:40.947Z,3.20
2022-09-30T01:30:10.030Z,5.23
2022-09-30T01:32:53.462Z,3.70
2022-09-30T01:35:35.318Z,4.33
2022-09-30T01:38:29.360Z,3.23
2022-09-30T01:41:05.067Z,5.73
2022-09-30T01:43:51.175Z,6.10
2022-09-30T01:46:33.655Z,3.27
2022-09-30T01:49:27.153Z,3.23
2022-09-30T01:52:13.899Z,6.43
2022-09-30T01:54:53.828Z,6.80
2022-09-30T01:57:30.679Z,4.00
2022-09-30T02:00:05.363Z,3.30
2022-09-30T02:03:02.411Z,3.50
2022-09-30T02:05:37.724Z,3.60
2022-09-30T02:08:11.470Z,3.30
2022-09-30T02:11:12.155Z,3.80
2022-09-30T02:14:00.191Z,4.83
2022-09-30T02:16:33.011Z,3.37
2022-09-30T02:19:08.668Z,4.00
2022-09-30T02:21:40.209Z,3.57
2022-09-30T02:24:12.792Z,3.60
2022-09-30T02:26:43.402Z,4.57
2022-09-30T02:29:17.073Z,6.10
2022-09-30T02:31:47.026Z,3.27
2022-09-30T02:34:22.631Z,3.93
2022-09-30T02:37:17.203Z,5.83
2022-09-30T02:39:51.644Z,3.53
2022-09-30T02:42:30.151Z,2.70
2022-09-30T02:45:05.863Z,4.17
2022-09-30T02:47:54.452Z,2.53
2022-09-30T02:50:31.350Z,4.70
2022-09-30T02:53:33.369Z,3.43
2022-09-30T02:56:12.261Z,3.20
2022-09-30T02:58:41.272Z,5.23
2022-09-30T03:01:11.560Z,5.97
2022-09-30T03:03:41.062Z,2.93
2022-09-30T03:06:09.794Z,3.20
2022-09-30T03:08:36.744Z,2.90
2022-09-30T03:11:05.697Z,3.37
2022-09-30T03:14:04.762Z,3.00
2022-09-30T03:16:59.029Z,3.20
2022-09-30T03:19:48.332Z,3.57
2022-09-30T03:22:30.420Z,7.00
2022-09-30T03:25:06.788Z,3.80
2022-09-30T03:27:44.416Z,3.70
2022-09-30T03:30:17.923Z,4.20
2022-09-30T03:32:56.440Z,2.83
2022-09-30T03:35:26.250Z,5.77
2022-09-30T03:38:12.910Z,4.60
2022-09-30T03:40:51.809Z,3.43
2022-09-30T03:43:26.234Z,5.40
2022-09-30T03:46:06.148Z,6.50
2022-09-30T03:48:35.700Z,6.50
2022-09-30T03:51:04.388Z,3.17
2022-09-30T03:53:31.551Z,3.13
2022-09-30T03:55:58.357Z,3.37
2022-09-30T03:58:25.604Z,5.10
2022-09-30T04:00:54.390Z,3.23
2022-09-30T04:03:22.227Z,3.80
2022-09-30T04:05:49.909Z,5.33
2022-09-30T04:08:16.940Z,6.67
2022-09-30T04:10:44.644Z,3.10
2022-09-30T04:13:12.781Z,2.87
2022-09-30T04:15:40.808Z,2.97
2022-09-30T04:18:07.880Z,3.47
2022-09-30T04:20:34.760Z,3.60
2022-09-30T04:23:01.887Z,3.23
2022-09-30T04:25:29.310Z,4.00
2022-09-30T04:27:56.208Z,3.63
2022-09-30T04:30:26.425Z,2.97
2022-09-30T04:32:54.934Z,3.57
2022-09-30T04:35:21.715Z,3.10
2022-09-30T04:37:48.509Z,3.73
2022-09-30T04:40:17.266Z,3.73
2022-09-30T04:42:44.425Z,3.30
2022-09-30T04:45:12.855Z,6.07
2022-09-30T04:47:44.404Z,3.53
2022-09-30T04:50:11.230Z,5.30
2022-09-30T04:52:38.417Z,4.27
2022-09-30T04:55:05.762Z,4.37
2022-09-30T04:57:32.647Z,6.40
2022-09-30T04:59:59.459Z,4.23
2022-09-30T05:02:26.274Z,6.17
2022-09-30T05:04:55.275Z,5.40
2022-09-30T05:07:22.308Z,2.83
2022-09-30T05:09:49.058Z,2.80
2022-09-30T05:12:15.939Z,3.00
2022-09-30T05:14:42.715Z,3.00
2022-09-30T05:17:09.506Z,3.33
2022-09-30T05:19:36.282Z,3.10
2022-09-30T05:22:03.325Z,2.90
2022-09-30T05:24:30.955Z,3.17
2022-09-30T05:26:57.756Z,2.80
2022-09-30T05:29:24.477Z,3.10
2022-09-30T05:31:51.231Z,3.43
2022-09-30T05:34:18.032Z,2.87
2022-09-30T05:36:44.882Z,4.23
2022-09-30T05:39:12.287Z,4.93
2022-09-30T05:41:39.142Z,3.27
2022-09-30T05:44:07.169Z,4.23
2022-09-30T05:46:34.236Z,4.30
2022-09-30T05:49:01.119Z,4.30
2022-09-30T05:51:27.826Z,4.33
2022-09-30T05:53:54.623Z,4.30
2022-09-30T05:56:21.526Z,6.30
2022-09-30T05:58:48.479Z,5.40
2022-09-30T06:01:15.772Z,4.50
2022-09-30T06:03:46.888Z,4.23
2022-09-30T06:06:15.454Z,4.23
2022-09-30T06:08:43.767Z,4.10
2022-09-30T06:11:13.111Z,3.70
2022-09-30T06:13:41.554Z,4.90
2022-09-30T06:16:09.717Z,4.67
2022-09-30T06:18:37.541Z,5.20
2022-09-30T06:21:05.147Z,4.90
2022-09-30T06:23:34.975Z,3.93
2022-09-30T06:26:03.493Z,5.33
2022-09-30T06:28:30.469Z,4.47
2022-09-30T06:30:57.335Z,4.07
2022-09-30T06:33:24.143Z,4.10
2022-09-30T06:35:51.133Z,5.33
2022-09-30T06:38:17.915Z,4.43
2022-09-30T06:40:46.873Z,4.60
2022-09-30T06:43:13.893Z,4.50
2022-09-30T06:45:40.710Z,3.43
2022-09-30T06:48:09.957Z,3.93
2022-09-30T06:50:39.237Z,4.50
2022-09-30T06:53:08.646Z,4.70
2022-09-30T06:55:39.546Z,5.13
2022-09-30T06:58:11.299Z,4.80
2022-09-30T07:00:38.306Z,4.43
2022-09-30T07:03:09.738Z,5.60
2022-09-30T07:05:37.732Z,5.73
2022-09-30T07:08:05.891Z,5.17
2022-09-30T07:10:32.704Z,5.13
2022-09-30T07:13:02.486Z,5.07
2022-09-30T07:15:29.704Z,5.17
2022-09-30T07:17:59.169Z,7.83
2022-09-30T07:20:26.818Z,5.60
2022-09-30T07:22:53.963Z,7.33
2022-09-30T07:25:20.861Z,9.83
2022-09-30T07:27:47.969Z,7.13
2022-09-30T07:30:24.047Z,5.70
2022-09-30T07:32:53.545Z,5.93
2022-09-30T07:35:20.780Z,6.47
2022-09-30T07:37:47.775Z,6.03
2022-09-30T07:40:15.311Z,7.07
2022-09-30T07:42:46.023Z,7.10
2022-09-30T07:45:17.112Z,6.40
2022-09-30T07:47:44.054Z,8.07
2022-09-30T07:50:13.349Z,8.57
2022-09-30T07:52:40.037Z,8.67
2022-09-30T07:55:06.987Z,8.40
2022-09-30T07:57:33.724Z,7.00
2022-09-30T08:00:12.051Z,6.90
2022-09-30T08:02:47.385Z,7.07
2022-09-30T08:05:14.207Z,7.03
2022-09-30T08:07:40.987Z,6.60
2022-09-30T08:10:08.204Z,5.17
2022-09-30T08:12:37.212Z,5.22
2022-09-30T08:15:06.133Z,8.10
2022-09-30T08:17:33.183Z,4.97
2022-09-30T08:20:00.198Z,4.28
2022-09-30T08:22:28.157Z,3.80
2022-09-30T08:24:54.885Z,3.70
2022-09-30T08:27:21.760Z,3.85
2022-09-30T08:29:58.207Z,4.28
2022-09-30T08:32:30.723Z,3.40
2022-09-30T08:34:57.530Z,3.40
2022-09-30T08:37:24.401Z,3.40
2022-09-30T08:39:51.424Z,5.53
2022-09-30T08:42:41.343Z,3.38
2022-09-30T08:45:15.627Z,3.20
2022-09-30T08:47:51.344Z,3.65
2022-09-30T08:50:31.228Z,3.13
2022-09-30T08:53:03.398Z,2.80
2022-09-30T08:55:40.056Z,2.80
2022-09-30T08:58:34.610Z,3.72
2022-09-30T09:01:10.918Z,3.17
2022-09-30T09:03:37.767Z,6.10
2022-09-30T09:06:19.832Z,2.38
2022-09-30T09:08:53.006Z,2.28
2022-09-30T09:11:24.376Z,2.17
2022-09-30T09:14:00.994Z,3.22
2022-09-30T09:16:35.411Z,2.50
2022-09-30T09:19:17.911Z,3.60
2022-09-30T09:21:53.796Z,1.85
2022-09-30T09:24:25.878Z,2.03
2022-09-30T09:26:58.026Z,2.17
2022-09-30T09:29:52.847Z,2.00
2022-09-30T09:32:19.699Z,1.88
2022-09-30T09:34:52.974Z,1.90
2022-09-30T09:38:13.994Z,1.52
2022-09-30T09:41:08.553Z,2.28
2022-09-30T09:43:46.204Z,2.33
2022-09-30T09:46:29.615Z,1.67
2022-09-30T09:49:25.356Z,2.47
2022-09-30T09:52:13.285Z,4.63
2022-09-30T09:54:45.452Z,2.80
2022-09-30T09:57:16.045Z,2.90
2022-09-30T10:00:25.656Z,1.38
2022-09-30T10:03:16.275Z,2.05
2022-09-30T10:05:43.024Z,1.42
2022-09-30T10:08:18.261Z,1.70
2022-09-30T10:10:54.540Z,1.33
2022-09-30T10:13:25.483Z,1.35
2022-09-30T10:15:57.556Z,1.50
2022-09-30T10:18:28.662Z,2.17
2022-09-30T10:21:22.448Z,1.75
2022-09-30T10:23:49.524Z,4.07
2022-09-30T10:26:22.084Z,1.80
2022-09-30T10:28:50.278Z,1.95
2022-09-30T10:31:38.781Z,1.42
2022-09-30T10:34:26.352Z,1.67
2022-09-30T10:36:53.988Z,1.00
2022-09-30T10:39:24.950Z,0.77
2022-09-30T10:42:03.257Z,0.63
2022-09-30T10:44:30.831Z,1.52
2022-09-30T10:47:02.891Z,1.15
2022-09-30T10:49:48.717Z,1.05
2022-09-30T10:52:23.587Z,0.82
2022-09-30T10:54:54.014Z,0.60
2022-09-30T10:57:25.567Z,1.08
2022-09-30T11:00:14.815Z,0.93
2022-09-30T11:02:53.296Z,1.33
2022-09-30T11:05:30.845Z,1.77
2022-09-30T11:08:06.687Z,1.25
2022-09-30T11:10:44.838Z,0.70
2022-09-30T11:13:23.783Z,2.10
2022-09-30T11:16:01.947Z,0.77
2022-09-30T11:18:50.291Z,2.10
2022-09-30T11:21:27.349Z,0.47
2022-09-30T11:24:03.364Z,1.45
2022-09-30T11:27:27.340Z,1.00
2022-09-30T11:29:57.121Z,1.50
2022-09-30T11:32:54.206Z,0.90
2022-09-30T11:35:29.382Z,4.00
2022-09-30T11:38:05.322Z,1.50
2022-09-30T11:40:53.943Z,2.97
2022-09-30T11:43:26.611Z,2.45
2022-09-30T11:46:12.735Z,1.92
2022-09-30T11:49:01.182Z,1.63
2022-09-30T11:52:03.328Z,1.75
2022-09-30T11:54:39.181Z,1.80
2022-09-30T11:57:29.629Z,1.80
2022-09-30T12:00:06.124Z,1.23
2022-09-30T12:02:44.517Z,1.60
2022-09-30T12:05:19.104Z,1.15
2022-09-30T12:08:06.626Z,1.20
2022-09-30T12:10:44.917Z,1.33
2022-09-30T12:13:18.124Z,2.10
2022-09-30T12:15:47.282Z,2.20
2022-09-30T12:18:19.348Z,2.85
2022-09-30T12:20:51.604Z,1.40
2022-09-30T12:23:29.664Z,0.80
2022-09-30T12:25:58.669Z,1.75
2022-09-30T12:29:08.173Z,1.45
2022-09-30T12:32:01.343Z,1.40
2022-09-30T12:34:50.821Z,1.30
2022-09-30T12:37:35.792Z,2.72
2022-09-30T12:40:22.581Z,2.20
2022-09-30T12:43:17.388Z,1.42
2022-09-30T12:46:14.870Z,1.42
2022-09-30T12:48:51.219Z,4.03
2022-09-30T12:51:29.801Z,1.35
2022-09-30T12:54:03.718Z,2.88
2022-09-30T12:56:32.751Z,1.65
2022-09-30T12:59:00.906Z,1.00
2022-09-30T13:01:32.627Z,3.50
2022-09-30T13:03:59.361Z,0.93
2022-09-30T13:06:47.485Z,0.57
2022-09-30T13:09:22.313Z,0.80
2022-09-30T13:11:55.058Z,1.55
2022-09-30T13:14:35.997Z,1.10
2022-09-30T13:17:08.730Z,1.08
2022-09-30T13:19:44.629Z,2.83
2022-09-30T13:22:20.781Z,0.65
2022-09-30T13:25:05.867Z,1.35
2022-09-30T13:27:39.031Z,1.60
2022-09-30T13:30:17.434Z,1.05
2022-09-30T13:33:05.228Z,1.23
2022-09-30T13:35:32.850Z,0.77
2022-09-30T13:38:14.553Z,0.95
2022-09-30T13:41:02.229Z,1.23
2022-09-30T13:43:42.885Z,0.60
2022-09-30T13:46:43.022Z,2.60
2022-09-30T13:49:19.868Z,1.70
2022-09-30T13:51:47.142Z,1.65
2022-09-30T13:54:37.742Z,0.70
2022-09-30T13:57:06.750Z,1.00
2022-09-30T13:59:33.556Z,2.13
2022-09-30T14:02:22.614Z,1.23
2022-09-30T14:05:15.587Z,1.40
2022-09-30T14:08:23.651Z,1.40
2022-09-30T14:11:11.946Z,2.88
2022-09-30T14:14:05.339Z,2.58
2022-09-30T14:16:56.084Z,2.60
2022-09-30T14:19:47.518Z,2.97
2022-09-30T14:22:15.687Z,2.70
2022-09-30T14:24:42.564Z,3.88
2022-09-30T14:27:28.007Z,2.90
2022-09-30T14:30:13.819Z,4.45
2022-09-30T14:32:57.781Z,2.70
2022-09-30T14:35:28.309Z,4.95
2022-09-30T14:38:03.622Z,2.80
2022-09-30T14:40:33.644Z,2.92
2022-09-30T14:43:07.177Z,4.13
2022-09-30T14:45:37.765Z,4.50
2022-09-30T14:48:33.154Z,4.22
2022-09-30T14:51:12.158Z,5.30
2022-09-30T14:53:53.463Z,4.63
2022-09-30T14:56:31.099Z,4.10
2022-09-30T14:58:59.930Z,3.45
2022-09-30T15:01:35.324Z,4.93
2022-09-30T15:04:13.321Z,4.75
2022-09-30T15:06:45.786Z,5.95
2022-09-30T15:09:37.204Z,5.25
2022-09-30T15:12:07.299Z,4.85
2022-09-30T15:14:34.120Z,4.53
2022-09-30T15:17:05.833Z,4.72
2022-09-30T15:19:35.257Z,6.22
2022-09-30T15:22:05.243Z,5.32
2022-09-30T15:24:33.442Z,4.95
2022-09-30T15:27:01.560Z,6.55
2022-09-30T15:29:28.811Z,5.07
2022-09-30T15:32:02.881Z,5.00
2022-09-30T15:34:30.520Z,7.50
2022-09-30T15:37:10.622Z,4.72
2022-09-30T15:40:00.498Z,6.65
2022-09-30T15:42:43.824Z,5.53
2022-09-30T15:45:18.071Z,5.75
2022-09-30T15:47:58.020Z,4.80
2022-09-30T15:50:45.635Z,6.22
2022-09-30T15:53:25.513Z,5.32
2022-09-30T15:55:55.637Z,4.85
2022-09-30T15:58:33.593Z,5.57
2022-09-30T16:01:23.203Z,7.13
2022-09-30T16:03:56.892Z,5.33
2022-09-30T16:06:35.396Z,5.77
2022-09-30T16:09:28.163Z,4.65
2022-09-30T16:12:03.694Z,4.20
2022-09-30T16:14:40.157Z,5.03
2022-09-30T16:17:14.706Z,4.68
2022-09-30T16:19:43.077Z,4.85
2022-09-30T16:22:35.499Z,5.00
2022-09-30T16:25:31.743Z,5.97
2022-09-30T16:28:12.397Z,5.63
2022-09-30T16:30:47.079Z,6.97
2022-09-30T16:33:15.556Z,5.80
2022-09-30T16:35:43.957Z,5.60
2022-09-30T16:38:13.750Z,5.03
2022-09-30T16:40:40.826Z,7.47
2022-09-30T16:43:08.169Z,6.47
2022-09-30T16:45:35.519Z,6.77
2022-09-30T16:48:02.631Z,6.72
2022-09-30T16:50:47.204Z,10.43
2022-09-30T16:53:13.979Z,8.20
2022-09-30T16:55:40.783Z,10.40
2022-09-30T16:58:12.233Z,8.30
2022-09-30T17:00:43.071Z,8.27
2022-09-30T17:03:13.998Z,9.40
2022-09-30T17:05:42.677Z,9.27
2022-09-30T17:08:13.991Z,8.23
2022-09-30T17:10:43.153Z,10.53
2022-09-30T17:13:10.686Z,9.33
2022-09-30T17:15:37.675Z,8.37
2022-09-30T17:18:09.604Z,8.03
2022-09-30T17:20:37.831Z,11.07
2022-09-30T17:23:07.293Z,8.67
2022-09-30T17:25:35.062Z,9.13
2022-09-30T17:28:01.889Z,8.97
2022-09-30T17:30:28.850Z,10.13
2022-09-30T17:32:55.596Z,8.80
2022-09-30T17:35:22.604Z,7.57
2022-09-30T17:37:49.706Z,11.30
2022-09-30T17:40:35.285Z,8.77
2022-09-30T17:43:08.439Z,10.03
2022-09-30T17:45:36.211Z,7.40
2022-09-30T17:48:03.790Z,7.23
2022-09-30T17:50:30.774Z,7.47
2022-09-30T17:52:57.606Z,8.00
2022-09-30T17:55:24.656Z,7.93
2022-09-30T17:57:54.144Z,8.63
2022-09-30T18:00:20.902Z,9.17
2022-09-30T18:02:48.301Z,8.97
2022-09-30T18:05:15.691Z,6.70
2022-09-30T18:07:42.427Z,7.80
2022-09-30T18:10:09.430Z,6.97
2022-09-30T18:12:36.346Z,7.10
2022-09-30T18:15:03.991Z,7.83
2022-09-30T18:17:31.059Z,5.37
2022-09-30T18:19:57.857Z,5.63
2022-09-30T18:22:24.603Z,7.57
2022-09-30T18:25:09.973Z,6.90
2022-09-30T18:27:36.768Z,5.57
2022-09-30T18:30:05.355Z,5.20
2022-09-30T18:32:32.863Z,4.97
2022-09-30T18:34:59.742Z,5.23
2022-09-30T18:37:29.292Z,5.23
2022-09-30T18:39:56.099Z,5.03
2022-09-30T18:42:22.921Z,5.30
2022-09-30T18:44:50.975Z,5.87
2022-09-30T18:47:18.281Z,5.63
2022-09-30T18:49:45.163Z,5.50
2022-09-30T18:52:12.099Z,5.50
2022-09-30T18:54:38.902Z,5.77
2022-09-30T18:57:05.648Z,5.40
2022-09-30T18:59:32.476Z,6.50
2022-09-30T19:02:00.367Z,5.93
2022-09-30T19:04:27.384Z,6.03
2022-09-30T19:06:54.210Z,6.47
2022-09-30T19:09:21.080Z,7.17
2022-09-30T19:11:49.276Z,6.37
2022-09-30T19:14:16.251Z,6.30
2022-09-30T19:16:44.105Z,6.73
2022-09-30T19:19:11.024Z,6.17
2022-09-30T19:21:38.773Z,6.73
2022-09-30T19:24:07.858Z,7.63
2022-09-30T19:26:36.318Z,8.10
2022-09-30T19:29:05.388Z,7.90
2022-09-30T19:31:33.934Z,6.03
2022-09-30T19:34:02.023Z,7.93
2022-09-30T19:36:38.460Z,5.97
2022-09-30T19:39:12.435Z,5.57
2022-09-30T19:41:39.828Z,6.13
2022-09-30T19:44:06.752Z,5.63
2022-09-30T19:46:33.647Z,9.90
2022-09-30T19:49:00.460Z,6.37
2022-09-30T19:51:30.872Z,7.57
2022-09-30T19:54:05.797Z,6.10
2022-09-30T19:56:34.987Z,5.67
2022-09-30T19:59:01.906Z,7.00
2022-09-30T20:01:29.720Z,8.30
2022-09-30T20:04:00.144Z,6.87
2022-09-30T20:06:28.140Z,5.67
2022-09-30T20:09:04.136Z,6.10
2022-09-30T20:11:33.644Z,6.03
2022-09-30T20:14:20.458Z,6.20
2022-09-30T20:16:48.537Z,6.33
2022-09-30T20:19:17.393Z,7.27
2022-09-30T20:21:45.631Z,5.23
2022-09-30T20:24:14.919Z,5.37
2022-09-30T20:26:43.129Z,4.77
2022-09-30T20:29:11.071Z,6.33
2022-09-30T20:31:42.872Z,7.33
2022-09-30T20:34:14.469Z,5.40
2022-09-30T20:36:41.507Z,5.13
2022-09-30T20:39:09.033Z,4.60
2022-09-30T20:41:38.533Z,5.03
2022-09-30T20:44:12.073Z,6.27
2022-09-30T20:46:40.091Z,4.60
2022-09-30T20:49:07.346Z,7.60
2022-09-30T20:51:34.433Z,5.53
2022-09-30T20:54:01.504Z,4.53
2022-09-30T20:56:39.374Z,4.93
2022-09-30T20:59:11.056Z,3.80
2022-09-30T21:01:37.891Z,4.57
2022-09-30T21:04:04.697Z,7.53
2022-09-30T21:06:33.324Z,4.77
2022-09-30T21:09:03.831Z,3.67
2022-09-30T21:11:30.944Z,4.70
2022-09-30T21:13:58.218Z,7.30
2022-09-30T21:16:25.856Z,3.60
2022-09-30T21:18:53.421Z,4.50
2022-09-30T21:21:21.838Z,4.10
2022-09-30T21:23:48.823Z,3.63
2022-09-30T21:26:17.506Z,3.37
2022-09-30T21:28:49.686Z,3.80
2022-09-30T21:31:18.490Z,3.23
2022-09-30T21:33:49.861Z,3.40
2022-09-30T21:36:17.050Z,6.23
2022-09-30T21:38:43.803Z,4.40
2022-09-30T21:41:10.558Z,3.80
2022-09-30T21:43:38.008Z,4.03
2022-09-30T21:46:10.706Z,3.57
2022-09-30T21:48:38.770Z,4.77
2022-09-30T21:51:07.964Z,5.53
2022-09-30T21:53:34.828Z,5.33
2022-09-30T21:56:03.488Z,3.80
2022-09-30T21:58:32.378Z,4.60
2022-09-30T22:01:02.194Z,3.90
2022-09-30T22:03:31.625Z,4.10
2022-09-30T22:05:59.145Z,3.53
2022-09-30T22:08:26.490Z,4.27
2022-09-30T22:10:53.358Z,4.17
2022-09-30T22:13:20.119Z,6.27
2022-09-30T22:15:47.546Z,5.17
2022-09-30T22:18:19.541Z,4.80
2022-09-30T22:20:47.855Z,3.10
2022-09-30T22:23:15.177Z,3.97
2022-09-30T22:25:41.926Z,4.23
2022-09-30T22:28:08.819Z,3.47
2022-09-30T22:30:36.107Z,4.57
2022-09-30T22:33:21.424Z,5.77
2022-09-30T22:36:06.894Z,3.93
2022-09-30T22:38:33.634Z,4.43
2022-09-30T22:41:00.429Z,4.70
2022-09-30T22:43:27.371Z,4.13
2022-09-30T22:46:05.542Z,4.33
2022-09-30T22:48:32.819Z,4.30
2022-09-30T22:50:59.720Z,4.63
2022-09-30T22:53:27.745Z,4.57
2022-09-30T22:55:55.139Z,6.83
2022-09-30T22:58:25.851Z,4.23
2022-09-30T23:00:58.548Z,4.37
2022-09-30T23:03:25.948Z,4.70
2022-09-30T23:05:59.192Z,7.60
2022-09-30T23:08:31.277Z,4.83
2022-09-30T23:10:58.031Z,5.50
2022-09-30T23:13:26.119Z,4.97
2022-09-30T23:15:57.990Z,4.93
2022-09-30T23:18:25.141Z,4.90
2022-09-30T23:21:01.997Z,6.87
2022-09-30T23:23:33.098Z,6.30
2022-09-30T23:26:06.973Z,5.17
2022-09-30T23:28:34.044Z,5.30
2022-09-30T23:31:03.279Z,6.23
2022-09-30T23:33:30.029Z,6.20
2022-09-30T23:35:59.435Z,6.73
2022-09-30T23:38:26.800Z,6.73
2022-09-30T23:40:59.251Z,6.47
2022-09-30T23:43:31.179Z,7.77
2022-09-30T23:45:58.788Z,5.37
2022-09-30T23:48:26.201Z,5.57
2022-09-30T23:50:53.483Z,5.60
2022-09-30T23:53:22.310Z,8.60
2022-09-30T23:55:57.341Z,5.93
2022-09-30T23:58:25.864Z,7.63
